Low temp

Not for real navigation. The accuracy of this data is not assured See disclaimer for more information



ICAO NAME COUNTRY WIND Kt GUST Kt VIS m TEMP/DEW C BARO METAR
SCRM 9 0 9999 -7/-7 29.32 SCRM 192300Z 16009KT 9999 BKN030 OVC200 M07/M07 Q0993 NOSIG
YCOM 9 0 200 -4/-4 30.18 YCOM 192230Z AUTO 02009KT 0200 // OVC001 M04/M04 Q1022
YMDG 3 0 9999 -1/-2 30.24 YMDG 192200Z AUTO 02003KT 9999 // NCD M01/M02 Q1024
CWDT Chute Des Passes Canada 1 0 9999 0/0 29.92 CWDT 192200Z AUTO 01001KT RMK AO1 3PAST HR 7008 P0001 50003
EIWF 18 0 9999 0/0 29.53 EIWF 192230Z 25018KT 220V300 9999 SCT020 ///// Q1000 REDZ

Show more